sensor_id;sensor_type;location;lat;lon;timestamp;P1;durP1;ratioP1;P2;durP2;ratioP2
4597;SDS011;62772;48.646;8.906;2022-09-09T00:04:12;4.70;;;2.10;;
4597;SDS011;62772;48.646;8.906;2022-09-09T00:09:21;5.40;;;2.60;;
4597;SDS011;62772;48.646;8.906;2022-09-09T00:14:30;4.93;;;2.00;;
4597;SDS011;62772;48.646;8.906;2022-09-09T00:19:38;5.37;;;1.80;;
4597;SDS011;62772;48.646;8.906;2022-09-09T00:24:46;3.47;;;1.80;;
4597;SDS011;62772;48.646;8.906;2022-09-09T00:29:54;3.07;;;1.77;;
4597;SDS011;62772;48.646;8.906;2022-09-09T00:35:00;5.20;;;1.70;;
4597;SDS011;62772;48.646;8.906;2022-09-09T00:40:05;4.13;;;2.43;;
4597;SDS011;62772;48.646;8.906;2022-09-09T00:45:33;2.93;;;1.63;;
4597;SDS011;62772;48.646;8.906;2022-09-09T00:50:52;5.20;;;1.97;;
4597;SDS011;62772;48.646;8.906;2022-09-09T00:56:00;6.03;;;2.37;;
4597;SDS011;62772;48.646;8.906;2022-09-09T01:01:08;3.17;;;1.73;;
4597;SDS011;62772;48.646;8.906;2022-09-09T01:06:13;6.57;;;2.00;;
4597;SDS011;62772;48.646;8.906;2022-09-09T01:11:20;3.17;;;1.97;;
4597;SDS011;62772;48.646;8.906;2022-09-09T01:16:25;5.03;;;1.80;;
4597;SDS011;62772;48.646;8.906;2022-09-09T01:21:32;3.93;;;1.80;;
4597;SDS011;62772;48.646;8.906;2022-09-09T01:26:44;4.53;;;2.13;;
4597;SDS011;62772;48.646;8.906;2022-09-09T01:31:55;7.80;;;2.00;;
4597;SDS011;62772;48.646;8.906;2022-09-09T01:36:58;4.53;;;2.13;;
4597;SDS011;62772;48.646;8.906;2022-09-09T01:42:06;5.03;;;2.10;;
4597;SDS011;62772;48.646;8.906;2022-09-09T01:47:09;4.07;;;2.10;;
4597;SDS011;62772;48.646;8.906;2022-09-09T01:52:25;7.13;;;2.30;;
4597;SDS011;62772;48.646;8.906;2022-09-09T01:57:30;4.10;;;2.17;;
4597;SDS011;62772;48.646;8.906;2022-09-09T02:02:35;5.83;;;1.90;;
4597;SDS011;62772;48.646;8.906;2022-09-09T02:07:47;6.17;;;2.00;;
4597;SDS011;62772;48.646;8.906;2022-09-09T02:13:07;4.23;;;1.90;;
4597;SDS011;62772;48.646;8.906;2022-09-09T02:18:13;2.80;;;1.80;;
4597;SDS011;62772;48.646;8.906;2022-09-09T02:23:19;3.93;;;1.87;;
4597;SDS011;62772;48.646;8.906;2022-09-09T02:28:27;3.30;;;1.80;;
4597;SDS011;62772;48.646;8.906;2022-09-09T02:33:33;5.37;;;1.80;;
4597;SDS011;62772;48.646;8.906;2022-09-09T02:38:40;3.20;;;1.80;;
4597;SDS011;62772;48.646;8.906;2022-09-09T02:43:51;4.50;;;1.83;;
4597;SDS011;62772;48.646;8.906;2022-09-09T02:48:58;4.63;;;1.70;;
4597;SDS011;62772;48.646;8.906;2022-09-09T02:54:09;2.90;;;1.70;;
4597;SDS011;62772;48.646;8.906;2022-09-09T02:59:20;8.90;;;1.50;;
4597;SDS011;62772;48.646;8.906;2022-09-09T03:04:22;4.50;;;1.80;;
4597;SDS011;62772;48.646;8.906;2022-09-09T03:09:25;4.27;;;2.10;;
4597;SDS011;62772;48.646;8.906;2022-09-09T03:14:30;4.00;;;1.63;;
4597;SDS011;62772;48.646;8.906;2022-09-09T03:19:31;4.43;;;2.17;;
4597;SDS011;62772;48.646;8.906;2022-09-09T03:24:33;4.33;;;1.70;;
4597;SDS011;62772;48.646;8.906;2022-09-09T03:29:39;4.10;;;1.90;;
4597;SDS011;62772;48.646;8.906;2022-09-09T03:34:44;3.23;;;2.00;;
4597;SDS011;62772;48.646;8.906;2022-09-09T03:39:48;2.50;;;1.70;;
4597;SDS011;62772;48.646;8.906;2022-09-09T03:44:53;3.47;;;1.87;;
4597;SDS011;62772;48.646;8.906;2022-09-09T03:49:57;4.80;;;2.10;;
4597;SDS011;62772;48.646;8.906;2022-09-09T03:54:58;4.43;;;2.03;;
4597;SDS011;62772;48.646;8.906;2022-09-09T04:00:02;4.33;;;1.93;;
4597;SDS011;62772;48.646;8.906;2022-09-09T04:05:06;4.97;;;1.97;;
4597;SDS011;62772;48.646;8.906;2022-09-09T04:10:08;3.17;;;1.70;;
4597;SDS011;62772;48.646;8.906;2022-09-09T04:15:15;3.90;;;2.00;;
4597;SDS011;62772;48.646;8.906;2022-09-09T04:20:17;4.33;;;2.00;;
4597;SDS011;62772;48.646;8.906;2022-09-09T04:25:19;5.73;;;2.10;;
4597;SDS011;62772;48.646;8.906;2022-09-09T04:30:23;7.10;;;2.00;;
4597;SDS011;62772;48.646;8.906;2022-09-09T04:35:25;3.43;;;2.33;;
4597;SDS011;62772;48.646;8.906;2022-09-09T04:40:28;3.77;;;2.27;;
4597;SDS011;62772;48.646;8.906;2022-09-09T04:45:32;7.10;;;2.27;;
4597;SDS011;62772;48.646;8.906;2022-09-09T04:50:34;3.60;;;2.10;;
4597;SDS011;62772;48.646;8.906;2022-09-09T04:55:35;4.30;;;2.63;;
4597;SDS011;62772;48.646;8.906;2022-09-09T05:00:38;4.10;;;2.30;;
4597;SDS011;62772;48.646;8.906;2022-09-09T05:05:41;4.50;;;2.30;;
4597;SDS011;62772;48.646;8.906;2022-09-09T05:10:43;5.80;;;2.50;;
4597;SDS011;62772;48.646;8.906;2022-09-09T05:15:53;5.20;;;2.60;;
4597;SDS011;62772;48.646;8.906;2022-09-09T05:20:58;3.73;;;2.23;;
4597;SDS011;62772;48.646;8.906;2022-09-09T05:26:00;4.80;;;2.47;;
4597;SDS011;62772;48.646;8.906;2022-09-09T05:31:06;4.67;;;2.43;;
4597;SDS011;62772;48.646;8.906;2022-09-09T05:36:10;5.33;;;2.70;;
4597;SDS011;62772;48.646;8.906;2022-09-09T05:41:14;3.87;;;2.30;;
4597;SDS011;62772;48.646;8.906;2022-09-09T05:46:23;3.77;;;2.43;;
4597;SDS011;62772;48.646;8.906;2022-09-09T05:51:26;4.00;;;2.33;;
4597;SDS011;62772;48.646;8.906;2022-09-09T05:56:31;3.90;;;2.20;;
4597;SDS011;62772;48.646;8.906;2022-09-09T06:01:36;3.60;;;2.20;;
4597;SDS011;62772;48.646;8.906;2022-09-09T06:06:41;6.10;;;2.20;;
4597;SDS011;62772;48.646;8.906;2022-09-09T06:11:52;4.83;;;2.77;;
4597;SDS011;62772;48.646;8.906;2022-09-09T06:16:58;4.07;;;2.20;;
4597;SDS011;62772;48.646;8.906;2022-09-09T06:22:03;5.23;;;2.47;;
4597;SDS011;62772;48.646;8.906;2022-09-09T06:27:08;9.40;;;2.40;;
4597;SDS011;62772;48.646;8.906;2022-09-09T06:32:13;8.40;;;3.23;;
4597;SDS011;62772;48.646;8.906;2022-09-09T06:37:14;3.83;;;2.43;;
4597;SDS011;62772;48.646;8.906;2022-09-09T06:42:20;6.50;;;2.67;;
4597;SDS011;62772;48.646;8.906;2022-09-09T06:47:41;3.87;;;2.27;;
4597;SDS011;62772;48.646;8.906;2022-09-09T06:52:42;6.47;;;2.70;;
4597;SDS011;62772;48.646;8.906;2022-09-09T06:57:46;6.27;;;2.40;;
4597;SDS011;62772;48.646;8.906;2022-09-09T07:02:58;5.30;;;2.50;;
4597;SDS011;62772;48.646;8.906;2022-09-09T07:07:59;7.30;;;2.40;;
4597;SDS011;62772;48.646;8.906;2022-09-09T07:13:00;4.57;;;2.30;;
4597;SDS011;62772;48.646;8.906;2022-09-09T07:18:05;6.60;;;2.77;;
4597;SDS011;62772;48.646;8.906;2022-09-09T07:23:06;6.47;;;2.80;;
4597;SDS011;62772;48.646;8.906;2022-09-09T07:28:06;6.10;;;3.07;;
4597;SDS011;62772;48.646;8.906;2022-09-09T07:33:11;6.50;;;2.83;;
4597;SDS011;62772;48.646;8.906;2022-09-09T07:38:13;9.20;;;2.50;;
4597;SDS011;62772;48.646;8.906;2022-09-09T07:43:17;21.80;;;2.53;;
4597;SDS011;62772;48.646;8.906;2022-09-09T07:48:22;7.87;;;2.57;;
4597;SDS011;62772;48.646;8.906;2022-09-09T07:53:23;8.43;;;2.60;;
4597;SDS011;62772;48.646;8.906;2022-09-09T07:58:24;9.40;;;2.70;;
4597;SDS011;62772;48.646;8.906;2022-09-09T08:03:27;7.30;;;2.50;;
4597;SDS011;62772;48.646;8.906;2022-09-09T08:08:28;11.80;;;2.63;;
4597;SDS011;62772;48.646;8.906;2022-09-09T08:13:29;3.27;;;1.90;;
4597;SDS011;62772;48.646;8.906;2022-09-09T08:18:34;6.40;;;2.77;;
4597;SDS011;62772;48.646;8.906;2022-09-09T08:23:35;5.40;;;2.07;;
4597;SDS011;62772;48.646;8.906;2022-09-09T08:28:37;5.03;;;2.00;;
4597;SDS011;62772;48.646;8.906;2022-09-09T08:33:41;4.00;;;1.87;;
4597;SDS011;62772;48.646;8.906;2022-09-09T08:38:43;5.43;;;2.20;;
4597;SDS011;62772;48.646;8.906;2022-09-09T08:43:47;5.57;;;2.33;;
4597;SDS011;62772;48.646;8.906;2022-09-09T08:48:56;7.30;;;2.23;;
4597;SDS011;62772;48.646;8.906;2022-09-09T08:54:02;3.47;;;1.57;;
4597;SDS011;62772;48.646;8.906;2022-09-09T08:59:07;3.20;;;1.37;;
4597;SDS011;62772;48.646;8.906;2022-09-09T09:04:38;7.83;;;1.87;;
4597;SDS011;62772;48.646;8.906;2022-09-09T09:09:47;4.70;;;1.90;;
4597;SDS011;62772;48.646;8.906;2022-09-09T09:15:05;5.57;;;2.10;;
4597;SDS011;62772;48.646;8.906;2022-09-09T09:20:19;5.93;;;1.90;;
4597;SDS011;62772;48.646;8.906;2022-09-09T09:25:26;3.90;;;2.10;;
4597;SDS011;62772;48.646;8.906;2022-09-09T09:30:35;5.43;;;2.20;;
4597;SDS011;62772;48.646;8.906;2022-09-09T09:35:45;4.63;;;2.70;;
4597;SDS011;62772;48.646;8.906;2022-09-09T09:40:49;5.30;;;2.43;;
4597;SDS011;62772;48.646;8.906;2022-09-09T09:45:51;3.77;;;2.20;;
4597;SDS011;62772;48.646;8.906;2022-09-09T09:50:55;6.47;;;2.63;;
4597;SDS011;62772;48.646;8.906;2022-09-09T09:56:00;8.07;;;2.47;;
4597;SDS011;62772;48.646;8.906;2022-09-09T10:01:03;7.00;;;2.43;;
4597;SDS011;62772;48.646;8.906;2022-09-09T10:06:07;8.10;;;2.40;;
4597;SDS011;62772;48.646;8.906;2022-09-09T10:11:20;3.93;;;2.03;;
4597;SDS011;62772;48.646;8.906;2022-09-09T10:16:34;5.13;;;2.30;;
4597;SDS011;62772;48.646;8.906;2022-09-09T10:21:55;5.53;;;2.20;;
4597;SDS011;62772;48.646;8.906;2022-09-09T10:27:10;7.53;;;2.23;;
4597;SDS011;62772;48.646;8.906;2022-09-09T10:32:24;6.47;;;1.90;;
4597;SDS011;62772;48.646;8.906;2022-09-09T10:37:41;6.00;;;2.07;;
4597;SDS011;62772;48.646;8.906;2022-09-09T10:42:49;4.73;;;1.90;;
4597;SDS011;62772;48.646;8.906;2022-09-09T10:47:54;3.90;;;1.50;;
4597;SDS011;62772;48.646;8.906;2022-09-09T10:53:12;6.10;;;2.30;;
4597;SDS011;62772;48.646;8.906;2022-09-09T10:58:19;4.43;;;1.50;;
4597;SDS011;62772;48.646;8.906;2022-09-09T11:03:26;3.27;;;1.43;;
4597;SDS011;62772;48.646;8.906;2022-09-09T11:08:37;2.90;;;1.27;;
4597;SDS011;62772;48.646;8.906;2022-09-09T11:13:40;6.30;;;1.90;;
4597;SDS011;62772;48.646;8.906;2022-09-09T11:18:44;2.87;;;1.40;;
4597;SDS011;62772;48.646;8.906;2022-09-09T11:23:50;2.40;;;1.10;;
4597;SDS011;62772;48.646;8.906;2022-09-09T11:28:58;2.80;;;1.30;;
4597;SDS011;62772;48.646;8.906;2022-09-09T11:39:42;1.90;;;1.10;;
4597;SDS011;62772;48.646;8.906;2022-09-09T11:44:53;2.00;;;1.17;;
4597;SDS011;62772;48.646;8.906;2022-09-09T11:49:55;2.00;;;1.20;;
4597;SDS011;62772;48.646;8.906;2022-09-09T11:55:24;2.10;;;0.90;;
4597;SDS011;62772;48.646;8.906;2022-09-09T12:00:34;2.00;;;1.00;;
4597;SDS011;62772;48.646;8.906;2022-09-09T12:05:37;1.80;;;1.10;;
4597;SDS011;62772;48.646;8.906;2022-09-09T12:10:52;6.10;;;1.80;;
4597;SDS011;62772;48.646;8.906;2022-09-09T12:15:55;3.47;;;1.40;;
4597;SDS011;62772;48.646;8.906;2022-09-09T12:20:57;4.70;;;1.20;;
4597;SDS011;62772;48.646;8.906;2022-09-09T12:26:12;12.90;;;1.80;;
4597;SDS011;62772;48.646;8.906;2022-09-09T12:31:34;3.10;;;1.30;;
4597;SDS011;62772;48.646;8.906;2022-09-09T12:36:42;4.13;;;1.40;;
4597;SDS011;62772;48.646;8.906;2022-09-09T12:41:53;4.60;;;1.70;;
4597;SDS011;62772;48.646;8.906;2022-09-09T12:46:57;3.00;;;1.40;;
4597;SDS011;62772;48.646;8.906;2022-09-09T12:52:01;2.87;;;1.63;;
4597;SDS011;62772;48.646;8.906;2022-09-09T12:57:09;4.00;;;1.20;;
4597;SDS011;62772;48.646;8.906;2022-09-09T13:02:16;2.87;;;1.23;;
4597;SDS011;62772;48.646;8.906;2022-09-09T13:07:19;3.20;;;1.10;;
4597;SDS011;62772;48.646;8.906;2022-09-09T13:12:24;3.70;;;1.07;;
4597;SDS011;62772;48.646;8.906;2022-09-09T13:17:25;3.10;;;1.00;;
4597;SDS011;62772;48.646;8.906;2022-09-09T13:22:29;6.50;;;1.30;;
4597;SDS011;62772;48.646;8.906;2022-09-09T13:27:36;2.97;;;1.27;;
4597;SDS011;62772;48.646;8.906;2022-09-09T13:32:39;2.43;;;1.10;;
4597;SDS011;62772;48.646;8.906;2022-09-09T13:37:39;2.60;;;1.10;;
4597;SDS011;62772;48.646;8.906;2022-09-09T13:42:45;1.90;;;0.97;;
4597;SDS011;62772;48.646;8.906;2022-09-09T13:47:46;6.43;;;1.20;;
4597;SDS011;62772;48.646;8.906;2022-09-09T13:52:52;2.17;;;0.90;;
4597;SDS011;62772;48.646;8.906;2022-09-09T13:57:57;2.27;;;0.93;;
4597;SDS011;62772;48.646;8.906;2022-09-09T14:03:00;2.90;;;0.90;;
4597;SDS011;62772;48.646;8.906;2022-09-09T14:08:02;2.20;;;1.10;;
4597;SDS011;62772;48.646;8.906;2022-09-09T14:13:07;2.40;;;0.90;;
4597;SDS011;62772;48.646;8.906;2022-09-09T14:18:09;3.70;;;1.10;;
4597;SDS011;62772;48.646;8.906;2022-09-09T14:23:11;2.43;;;1.10;;
4597;SDS011;62772;48.646;8.906;2022-09-09T14:28:15;4.53;;;0.97;;
4597;SDS011;62772;48.646;8.906;2022-09-09T14:33:16;2.60;;;1.10;;
4597;SDS011;62772;48.646;8.906;2022-09-09T14:38:17;3.07;;;1.20;;
4597;SDS011;62772;48.646;8.906;2022-09-09T14:43:20;4.27;;;1.30;;
4597;SDS011;62772;48.646;8.906;2022-09-09T14:48:21;3.77;;;1.10;;
4597;SDS011;62772;48.646;8.906;2022-09-09T14:53:22;2.07;;;0.90;;
4597;SDS011;62772;48.646;8.906;2022-09-09T14:58:25;2.67;;;1.30;;
4597;SDS011;62772;48.646;8.906;2022-09-09T15:03:30;3.97;;;1.00;;
4597;SDS011;62772;48.646;8.906;2022-09-09T15:08:32;2.30;;;1.00;;
4597;SDS011;62772;48.646;8.906;2022-09-09T15:13:35;3.17;;;1.20;;
4597;SDS011;62772;48.646;8.906;2022-09-09T15:18:40;3.30;;;1.00;;
4597;SDS011;62772;48.646;8.906;2022-09-09T15:23:45;2.27;;;1.00;;
4597;SDS011;62772;48.646;8.906;2022-09-09T15:28:49;3.00;;;1.00;;
4597;SDS011;62772;48.646;8.906;2022-09-09T15:33:51;5.40;;;1.00;;
4597;SDS011;62772;48.646;8.906;2022-09-09T15:38:53;3.07;;;1.03;;
4597;SDS011;62772;48.646;8.906;2022-09-09T15:43:57;5.07;;;1.00;;
4597;SDS011;62772;48.646;8.906;2022-09-09T15:48:58;3.70;;;0.90;;
4597;SDS011;62772;48.646;8.906;2022-09-09T15:54:04;3.07;;;1.00;;
4597;SDS011;62772;48.646;8.906;2022-09-09T15:59:08;3.13;;;1.00;;
4597;SDS011;62772;48.646;8.906;2022-09-09T16:04:09;2.50;;;1.00;;
4597;SDS011;62772;48.646;8.906;2022-09-09T16:09:10;1.83;;;1.00;;
4597;SDS011;62772;48.646;8.906;2022-09-09T16:14:14;1.80;;;0.90;;
4597;SDS011;62772;48.646;8.906;2022-09-09T16:19:19;2.33;;;0.80;;
4597;SDS011;62772;48.646;8.906;2022-09-09T16:24:19;2.00;;;0.90;;
4597;SDS011;62772;48.646;8.906;2022-09-09T16:29:23;1.87;;;0.97;;
4597;SDS011;62772;48.646;8.906;2022-09-09T16:34:27;4.17;;;0.90;;
4597;SDS011;62772;48.646;8.906;2022-09-09T16:39:28;1.67;;;0.80;;
4597;SDS011;62772;48.646;8.906;2022-09-09T16:44:31;1.43;;;0.80;;
4597;SDS011;62772;48.646;8.906;2022-09-09T16:49:32;1.90;;;0.87;;
4597;SDS011;62772;48.646;8.906;2022-09-09T16:54:32;1.90;;;0.90;;
4597;SDS011;62772;48.646;8.906;2022-09-09T16:59:35;1.90;;;0.93;;
4597;SDS011;62772;48.646;8.906;2022-09-09T17:04:37;1.60;;;0.93;;
4597;SDS011;62772;48.646;8.906;2022-09-09T17:09:39;1.50;;;0.80;;
4597;SDS011;62772;48.646;8.906;2022-09-09T17:14:42;2.53;;;1.00;;
4597;SDS011;62772;48.646;8.906;2022-09-09T17:19:43;2.30;;;1.07;;
4597;SDS011;62772;48.646;8.906;2022-09-09T17:24:44;2.00;;;1.03;;
4597;SDS011;62772;48.646;8.906;2022-09-09T17:29:48;2.70;;;1.00;;
4597;SDS011;62772;48.646;8.906;2022-09-09T17:34:48;3.20;;;1.13;;
4597;SDS011;62772;48.646;8.906;2022-09-09T17:39:49;4.20;;;1.10;;
4597;SDS011;62772;48.646;8.906;2022-09-09T17:44:52;1.97;;;0.90;;
4597;SDS011;62772;48.646;8.906;2022-09-09T17:49:53;2.87;;;1.20;;
4597;SDS011;62772;48.646;8.906;2022-09-09T17:54:54;4.33;;;1.80;;
4597;SDS011;62772;48.646;8.906;2022-09-09T18:00:17;4.61;;;1.36;;
4597;SDS011;62772;48.646;8.906;2022-09-09T18:05:18;2.30;;;1.20;;
4597;SDS011;62772;48.646;8.906;2022-09-09T18:10:20;2.60;;;1.20;;
4597;SDS011;62772;48.646;8.906;2022-09-09T18:15:23;3.00;;;1.40;;
4597;SDS011;62772;48.646;8.906;2022-09-09T18:20:24;3.10;;;1.30;;
4597;SDS011;62772;48.646;8.906;2022-09-09T18:25:25;2.30;;;1.40;;
4597;SDS011;62772;48.646;8.906;2022-09-09T18:30:28;5.33;;;1.50;;
4597;SDS011;62772;48.646;8.906;2022-09-09T18:35:31;7.40;;;1.53;;
4597;SDS011;62772;48.646;8.906;2022-09-09T18:40:31;3.07;;;1.30;;
4597;SDS011;62772;48.646;8.906;2022-09-09T18:45:36;2.10;;;1.10;;
4597;SDS011;62772;48.646;8.906;2022-09-09T18:50:37;3.53;;;1.57;;
4597;SDS011;62772;48.646;8.906;2022-09-09T18:55:38;3.50;;;1.47;;
4597;SDS011;62772;48.646;8.906;2022-09-09T19:00:41;2.40;;;1.27;;
4597;SDS011;62772;48.646;8.906;2022-09-09T19:05:45;4.77;;;1.30;;
4597;SDS011;62772;48.646;8.906;2022-09-09T19:10:46;3.57;;;1.40;;
4597;SDS011;62772;48.646;8.906;2022-09-09T19:15:49;3.87;;;1.27;;
4597;SDS011;62772;48.646;8.906;2022-09-09T19:20:50;3.73;;;1.40;;
4597;SDS011;62772;48.646;8.906;2022-09-09T19:25:51;2.97;;;1.50;;
4597;SDS011;62772;48.646;8.906;2022-09-09T19:30:55;5.83;;;1.27;;
4597;SDS011;62772;48.646;8.906;2022-09-09T19:35:56;3.30;;;1.47;;
4597;SDS011;62772;48.646;8.906;2022-09-09T19:41:01;3.70;;;1.17;;
4597;SDS011;62772;48.646;8.906;2022-09-09T19:46:06;3.27;;;1.50;;
4597;SDS011;62772;48.646;8.906;2022-09-09T19:51:09;2.43;;;1.40;;
4597;SDS011;62772;48.646;8.906;2022-09-09T19:56:11;3.57;;;1.30;;
4597;SDS011;62772;48.646;8.906;2022-09-09T20:01:16;3.33;;;1.40;;
4597;SDS011;62772;48.646;8.906;2022-09-09T20:06:18;3.43;;;1.40;;
4597;SDS011;62772;48.646;8.906;2022-09-09T20:11:20;4.10;;;1.60;;
4597;SDS011;62772;48.646;8.906;2022-09-09T20:16:26;9.57;;;1.60;;
4597;SDS011;62772;48.646;8.906;2022-09-09T20:21:29;3.47;;;1.60;;
4597;SDS011;62772;48.646;8.906;2022-09-09T20:26:31;3.23;;;1.40;;
4597;SDS011;62772;48.646;8.906;2022-09-09T20:31:39;2.20;;;1.30;;
4597;SDS011;62772;48.646;8.906;2022-09-09T20:36:42;3.40;;;1.30;;
4597;SDS011;62772;48.646;8.906;2022-09-09T20:41:43;2.60;;;1.47;;
4597;SDS011;62772;48.646;8.906;2022-09-09T20:46:48;3.67;;;1.27;;
4597;SDS011;62772;48.646;8.906;2022-09-09T20:51:50;4.73;;;1.30;;
4597;SDS011;62772;48.646;8.906;2022-09-09T20:56:52;3.43;;;1.60;;
4597;SDS011;62772;48.646;8.906;2022-09-09T21:01:57;2.50;;;1.53;;
4597;SDS011;62772;48.646;8.906;2022-09-09T21:07:00;2.50;;;1.30;;
4597;SDS011;62772;48.646;8.906;2022-09-09T21:12:01;4.97;;;1.47;;
4597;SDS011;62772;48.646;8.906;2022-09-09T21:17:05;2.23;;;1.37;;
4597;SDS011;62772;48.646;8.906;2022-09-09T21:22:06;3.17;;;1.40;;
4597;SDS011;62772;48.646;8.906;2022-09-09T21:27:06;8.63;;;1.80;;
4597;SDS011;62772;48.646;8.906;2022-09-09T21:32:10;2.10;;;1.20;;
4597;SDS011;62772;48.646;8.906;2022-09-09T21:37:10;3.10;;;1.50;;
4597;SDS011;62772;48.646;8.906;2022-09-09T21:42:11;2.70;;;1.53;;
4597;SDS011;62772;48.646;8.906;2022-09-09T21:47:15;3.70;;;1.67;;
4597;SDS011;62772;48.646;8.906;2022-09-09T21:52:16;5.43;;;1.67;;
4597;SDS011;62772;48.646;8.906;2022-09-09T21:57:17;3.37;;;1.40;;
4597;SDS011;62772;48.646;8.906;2022-09-09T22:02:20;4.63;;;1.70;;
4597;SDS011;62772;48.646;8.906;2022-09-09T22:07:21;2.80;;;1.70;;
4597;SDS011;62772;48.646;8.906;2022-09-09T22:12:21;3.80;;;1.60;;
4597;SDS011;62772;48.646;8.906;2022-09-09T22:17:25;3.80;;;1.87;;
4597;SDS011;62772;48.646;8.906;2022-09-09T22:22:26;2.87;;;1.53;;
4597;SDS011;62772;48.646;8.906;2022-09-09T22:27:26;4.70;;;1.63;;
4597;SDS011;62772;48.646;8.906;2022-09-09T22:32:30;6.27;;;1.90;;
4597;SDS011;62772;48.646;8.906;2022-09-09T22:37:30;5.23;;;1.80;;
4597;SDS011;62772;48.646;8.906;2022-09-09T22:42:31;3.20;;;1.87;;
4597;SDS011;62772;48.646;8.906;2022-09-09T22:47:36;3.30;;;1.40;;
4597;SDS011;62772;48.646;8.906;2022-09-09T22:52:39;3.50;;;1.80;;
4597;SDS011;62772;48.646;8.906;2022-09-09T22:57:40;5.57;;;2.07;;
4597;SDS011;62772;48.646;8.906;2022-09-09T23:02:43;9.43;;;2.00;;
4597;SDS011;62772;48.646;8.906;2022-09-09T23:07:47;5.10;;;2.20;;
4597;SDS011;62772;48.646;8.906;2022-09-09T23:12:48;6.03;;;2.10;;
4597;SDS011;62772;48.646;8.906;2022-09-09T23:17:52;4.00;;;1.83;;
4597;SDS011;62772;48.646;8.906;2022-09-09T23:22:54;3.20;;;1.80;;
4597;SDS011;62772;48.646;8.906;2022-09-09T23:27:55;4.90;;;1.53;;
4597;SDS011;62772;48.646;8.906;2022-09-09T23:32:59;2.67;;;1.57;;
4597;SDS011;62772;48.646;8.906;2022-09-09T23:38:00;4.00;;;1.53;;
4597;SDS011;62772;48.646;8.906;2022-09-09T23:43:01;2.30;;;1.47;;
4597;SDS011;62772;48.646;8.906;2022-09-09T23:48:08;4.53;;;1.80;;
4597;SDS011;62772;48.646;8.906;2022-09-09T23:53:08;2.50;;;1.40;;
4597;SDS011;62772;48.646;8.906;2022-09-09T23:58:11;2.43;;;1.40;;
